sensor_id;sensor_type;location;lat;lon;timestamp;pressure;altitude;pressure_sealevel;temperature;humidity
42621;BME280;28252;53.336;-6.298;2023-03-13T00:00:36;97705.19;;;22.57;100.00
42621;BME280;28252;53.336;-6.298;2023-03-13T00:01:33;97698.97;;;22.56;100.00
42621;BME280;28252;53.336;-6.298;2023-03-13T00:02:07;97702.72;;;22.55;100.00
42621;BME280;28252;53.336;-6.298;2023-03-13T00:02:46;97705.44;;;22.55;100.00
42621;BME280;28252;53.336;-6.298;2023-03-13T00:03:22;97699.22;;;22.55;100.00
42621;BME280;28252;53.336;-6.298;2023-03-13T00:03:57;97701.13;;;22.54;100.00
42621;BME280;28252;53.336;-6.298;2023-03-13T00:04:28;97698.41;;;22.54;100.00
42621;BME280;28252;53.336;-6.298;2023-03-13T00:05:00;97702.19;;;22.53;100.00
42621;BME280;28252;53.336;-6.298;2023-03-13T00:05:34;97688.63;;;22.53;100.00
42621;BME280;28252;53.336;-6.298;2023-03-13T00:06:08;97688.63;;;22.53;100.00
42621;BME280;28252;53.336;-6.298;2023-03-13T00:06:45;97707.59;;;22.53;100.00
42621;BME280;28252;53.336;-6.298;2023-03-13T00:07:16;97697.81;;;22.52;100.00
42621;BME280;28252;53.336;-6.298;2023-03-13T00:07:49;97713.28;;;22.52;100.00
42621;BME280;28252;53.336;-6.298;2023-03-13T00:08:25;97700.53;;;22.52;100.00
42621;BME280;28252;53.336;-6.298;2023-03-13T00:09:01;97698.09;;;22.51;100.00
42621;BME280;28252;53.336;-6.298;2023-03-13T00:09:38;97691.84;;;22.50;100.00
42621;BME280;28252;53.336;-6.298;2023-03-13T00:10:13;97681.84;;;22.51;100.00
42621;BME280;28252;53.336;-6.298;2023-03-13T00:12:07;97672.31;;;22.48;100.00
42621;BME280;28252;53.336;-6.298;2023-03-13T00:12:44;97644.38;;;22.48;100.00
42621;BME280;28252;53.336;-6.298;2023-03-13T00:13:16;97638.13;;;22.47;100.00
42621;BME280;28252;53.336;-6.298;2023-03-13T00:13:47;97651.69;;;22.47;100.00
42621;BME280;28252;53.336;-6.298;2023-03-13T00:14:18;97647.34;;;22.46;100.00
42621;BME280;28252;53.336;-6.298;2023-03-13T00:14:49;97637.56;;;22.45;100.00
42621;BME280;28252;53.336;-6.298;2023-03-13T00:15:22;97641.09;;;22.46;100.00
42621;BME280;28252;53.336;-6.298;2023-03-13T00:15:59;97624.81;;;22.46;100.00
42621;BME280;28252;53.336;-6.298;2023-03-13T00:16:33;97626.72;;;22.45;100.00
42621;BME280;28252;53.336;-6.298;2023-03-13T00:17:07;97616.97;;;22.44;100.00
42621;BME280;28252;53.336;-6.298;2023-03-13T00:17:40;97611.53;;;22.44;100.00
42621;BME280;28252;53.336;-6.298;2023-03-13T00:18:11;97627.81;;;22.44;100.00
42621;BME280;28252;53.336;-6.298;2023-03-13T00:18:44;97620.75;;;22.43;100.00
42621;BME280;28252;53.336;-6.298;2023-03-13T00:19:19;97626.16;;;22.43;100.00
42621;BME280;28252;53.336;-6.298;2023-03-13T00:19:54;97630.78;;;22.43;100.00
42621;BME280;28252;53.336;-6.298;2023-03-13T00:20:30;97631.03;;;22.41;100.00
42621;BME280;28252;53.336;-6.298;2023-03-13T00:21:07;97633.75;;;22.41;100.00
42621;BME280;28252;53.336;-6.298;2023-03-13T00:21:45;97632.09;;;22.40;100.00
42621;BME280;28252;53.336;-6.298;2023-03-13T00:22:16;97619.63;;;22.39;100.00
42621;BME280;28252;53.336;-6.298;2023-03-13T00:22:49;97625.06;;;22.39;100.00
42621;BME280;28252;53.336;-6.298;2023-03-13T00:26:54;97605.75;;;22.35;100.00
42621;BME280;28252;53.336;-6.298;2023-03-13T00:27:37;97607.66;;;22.35;100.00
42621;BME280;28252;53.336;-6.298;2023-03-13T00:28:08;97604.13;;;22.34;100.00
42621;BME280;28252;53.336;-6.298;2023-03-13T00:28:41;97606.84;;;22.34;100.00
42621;BME280;28252;53.336;-6.298;2023-03-13T00:29:20;97610.63;;;22.33;100.00
42621;BME280;28252;53.336;-6.298;2023-03-13T00:30:01;97600.03;;;22.32;100.00
42621;BME280;28252;53.336;-6.298;2023-03-13T00:30:34;97594.34;;;22.33;100.00
42621;BME280;28252;53.336;-6.298;2023-03-13T00:31:11;97595.72;;;22.31;100.00
42621;BME280;28252;53.336;-6.298;2023-03-13T00:31:49;97599.47;;;22.30;100.00
42621;BME280;28252;53.336;-6.298;2023-03-13T00:32:20;97598.41;;;22.31;100.00
42621;BME280;28252;53.336;-6.298;2023-03-13T00:35:02;97585.38;;;22.28;100.00
42621;BME280;28252;53.336;-6.298;2023-03-13T00:35:36;97585.38;;;22.28;100.00
42621;BME280;28252;53.336;-6.298;2023-03-13T00:36:10;97589.13;;;22.27;100.00
42621;BME280;28252;53.336;-6.298;2023-03-13T00:36:47;97592.94;;;22.26;100.00
42621;BME280;28252;53.336;-6.298;2023-03-13T00:37:18;97588.56;;;22.25;100.00
42621;BME280;28252;53.336;-6.298;2023-03-13T00:37:57;97586.66;;;22.25;100.00
42621;BME280;28252;53.336;-6.298;2023-03-13T00:38:28;97588.56;;;22.25;100.00
42621;BME280;28252;53.336;-6.298;2023-03-13T00:39:06;97586.97;;;22.24;100.00
42621;BME280;28252;53.336;-6.298;2023-03-13T00:39:39;97600.50;;;22.24;100.00
42621;BME280;28252;53.336;-6.298;2023-03-13T00:40:12;97600.50;;;22.24;100.00
42621;BME280;28252;53.336;-6.298;2023-03-13T00:40:44;97584.25;;;22.24;100.00
42621;BME280;28252;53.336;-6.298;2023-03-13T00:42:14;97573.66;;;22.22;100.00
42621;BME280;28252;53.336;-6.298;2023-03-13T00:42:47;97572.00;;;22.21;100.00
42621;BME280;28252;53.336;-6.298;2023-03-13T00:43:21;97574.72;;;22.21;100.00
42621;BME280;28252;53.336;-6.298;2023-03-13T00:43:59;97582.03;;;22.20;100.00
42621;BME280;28252;53.336;-6.298;2023-03-13T00:44:34;97573.06;;;22.20;100.00
42621;BME280;28252;53.336;-6.298;2023-03-13T00:45:07;97573.91;;;22.20;100.00
42621;BME280;28252;53.336;-6.298;2023-03-13T00:45:41;97581.22;;;22.20;100.00
42621;BME280;28252;53.336;-6.298;2023-03-13T00:46:14;97585.81;;;22.19;100.00
42621;BME280;28252;53.336;-6.298;2023-03-13T00:46:50;97577.69;;;22.19;100.00
42621;BME280;28252;53.336;-6.298;2023-03-13T00:47:23;97586.88;;;22.18;100.00
42621;BME280;28252;53.336;-6.298;2023-03-13T00:47:56;97580.66;;;22.18;100.00
42621;BME280;28252;53.336;-6.298;2023-03-13T00:48:32;97575.22;;;22.18;100.00
42621;BME280;28252;53.336;-6.298;2023-03-13T00:49:10;97580.66;;;22.18;100.00
42621;BME280;28252;53.336;-6.298;2023-03-13T00:49:43;97556.50;;;22.16;100.00
42621;BME280;28252;53.336;-6.298;2023-03-13T00:50:19;97557.34;;;22.17;100.00
42621;BME280;28252;53.336;-6.298;2023-03-13T00:50:52;97559.22;;;22.16;100.00
42621;BME280;28252;53.336;-6.298;2023-03-13T00:51:26;97554.91;;;22.15;100.00
42621;BME280;28252;53.336;-6.298;2023-03-13T00:52:00;97547.84;;;22.14;100.00
42621;BME280;28252;53.336;-6.298;2023-03-13T00:52:33;97559.47;;;22.15;100.00
42621;BME280;28252;53.336;-6.298;2023-03-13T00:53:04;97547.84;;;22.14;100.00
42621;BME280;28252;53.336;-6.298;2023-03-13T00:53:35;97542.41;;;22.14;100.00
42621;BME280;28252;53.336;-6.298;2023-03-13T00:54:07;97548.91;;;22.13;100.00
42621;BME280;28252;53.336;-6.298;2023-03-13T00:54:39;97540.78;;;22.13;100.00
42621;BME280;28252;53.336;-6.298;2023-03-13T00:55:15;97545.38;;;22.13;100.00
42621;BME280;28252;53.336;-6.298;2023-03-13T00:55:52;97543.47;;;22.13;100.00
42621;BME280;28252;53.336;-6.298;2023-03-13T00:56:25;97541.06;;;22.12;100.00
42621;BME280;28252;53.336;-6.298;2023-03-13T00:57:00;97515.00;;;22.11;100.00
42621;BME280;28252;53.336;-6.298;2023-03-13T00:57:36;97526.66;;;22.11;100.00
42621;BME280;28252;53.336;-6.298;2023-03-13T00:58:14;97537.50;;;22.11;100.00
42621;BME280;28252;53.336;-6.298;2023-03-13T00:58:48;97546.72;;;22.10;100.00
42621;BME280;28252;53.336;-6.298;2023-03-13T00:59:19;97539.66;;;22.09;100.00
42621;BME280;28252;53.336;-6.298;2023-03-13T00:59:58;97536.94;;;22.09;100.00
42621;BME280;28252;53.336;-6.298;2023-03-13T01:00:36;97542.38;;;22.09;100.00
42621;BME280;28252;53.336;-6.298;2023-03-13T01:01:40;97535.31;;;22.08;100.00
42621;BME280;28252;53.336;-6.298;2023-03-13T01:02:14;97525.56;;;22.07;100.00
42621;BME280;28252;53.336;-6.298;2023-03-13T01:02:47;97545.59;;;22.06;100.00
42621;BME280;28252;53.336;-6.298;2023-03-13T01:03:21;97535.59;;;22.07;100.00
42621;BME280;28252;53.336;-6.298;2023-03-13T01:05:17;97530.44;;;22.05;100.00
42621;BME280;28252;53.336;-6.298;2023-03-13T01:05:57;97528.78;;;22.04;100.00
42621;BME280;28252;53.336;-6.298;2023-03-13T01:06:33;97521.47;;;22.05;100.00
42621;BME280;28252;53.336;-6.298;2023-03-13T01:07:06;97520.66;;;22.04;100.00
42621;BME280;28252;53.336;-6.298;2023-03-13T01:07:42;97508.16;;;22.03;100.00
42621;BME280;28252;53.336;-6.298;2023-03-13T01:08:17;97516.31;;;22.03;100.00
42621;BME280;28252;53.336;-6.298;2023-03-13T01:08:53;97517.41;;;22.02;100.00
42621;BME280;28252;53.336;-6.298;2023-03-13T01:09:24;97522.81;;;22.02;100.00
42621;BME280;28252;53.336;-6.298;2023-03-13T01:10:03;97501.13;;;22.02;100.00
42621;BME280;28252;53.336;-6.298;2023-03-13T01:10:36;97510.06;;;22.02;100.00
42621;BME280;28252;53.336;-6.298;2023-03-13T01:11:08;97503.28;;;22.00;100.00
42621;BME280;28252;53.336;-6.298;2023-03-13T01:11:40;97503.28;;;22.00;100.00
42621;BME280;28252;53.336;-6.298;2023-03-13T01:12:11;97508.72;;;22.00;100.00
42621;BME280;28252;53.336;-6.298;2023-03-13T01:12:47;97503.28;;;22.00;100.00
42621;BME280;28252;53.336;-6.298;2023-03-13T01:13:21;97503.28;;;22.00;100.00
42621;BME280;28252;53.336;-6.298;2023-03-13T01:13:54;97488.09;;;21.99;100.00
42621;BME280;28252;53.336;-6.298;2023-03-13T01:14:32;97494.31;;;21.99;100.00
42621;BME280;28252;53.336;-6.298;2023-03-13T01:15:08;97495.69;;;21.97;100.00
42621;BME280;28252;53.336;-6.298;2023-03-13T01:15:41;97499.19;;;21.97;100.00
42621;BME280;28252;53.336;-6.298;2023-03-13T01:16:21;97494.59;;;21.98;100.00
42621;BME280;28252;53.336;-6.298;2023-03-13T01:16:56;97492.97;;;21.97;100.00
42621;BME280;28252;53.336;-6.298;2023-03-13T01:17:30;97497.59;;;21.96;100.00
42621;BME280;28252;53.336;-6.298;2023-03-13T01:18:03;97498.38;;;21.97;100.00
42621;BME280;28252;53.336;-6.298;2023-03-13T01:18:38;97502.16;;;21.96;100.00
42621;BME280;28252;53.336;-6.298;2023-03-13T01:19:12;97478.88;;;21.95;100.00
42621;BME280;28252;53.336;-6.298;2023-03-13T01:19:48;97496.19;;;21.94;100.00
42621;BME280;28252;53.336;-6.298;2023-03-13T01:20:19;97495.38;;;21.93;100.00
42621;BME280;28252;53.336;-6.298;2023-03-13T01:20:52;97486.41;;;21.93;100.00
42621;BME280;28252;53.336;-6.298;2023-03-13T01:21:28;97491.84;;;21.93;100.00
42621;BME280;28252;53.336;-6.298;2023-03-13T01:22:00;97487.50;;;21.92;100.00
42621;BME280;28252;53.336;-6.298;2023-03-13T01:22:38;97492.94;;;21.92;100.00
42621;BME280;28252;53.336;-6.298;2023-03-13T01:23:11;97482.09;;;21.92;100.00
42621;BME280;28252;53.336;-6.298;2023-03-13T01:23:42;97484.81;;;21.92;100.00
42621;BME280;28252;53.336;-6.298;2023-03-13T01:24:16;97492.38;;;21.90;100.00
42621;BME280;28252;53.336;-6.298;2023-03-13T01:24:49;97476.94;;;21.90;100.00
42621;BME280;28252;53.336;-6.298;2023-03-13T01:25:22;97488.56;;;21.91;100.00
42621;BME280;28252;53.336;-6.298;2023-03-13T01:25:53;97481.53;;;21.90;100.00
42621;BME280;28252;53.336;-6.298;2023-03-13T01:27:51;97471.78;;;21.89;100.00
42621;BME280;28252;53.336;-6.298;2023-03-13T01:28:24;97475.53;;;21.88;100.00
42621;BME280;28252;53.336;-6.298;2023-03-13T01:28:56;97476.38;;;21.88;100.00
42621;BME280;28252;53.336;-6.298;2023-03-13T01:30:50;97459.53;;;21.86;100.00
42621;BME280;28252;53.336;-6.298;2023-03-13T01:31:27;97444.38;;;21.85;100.00
42621;BME280;28252;53.336;-6.298;2023-03-13T01:32:02;97480.41;;;21.86;100.00
42621;BME280;28252;53.336;-6.298;2023-03-13T01:32:40;97462.53;;;21.85;100.00
42621;BME280;28252;53.336;-6.298;2023-03-13T01:33:11;97459.84;;;21.85;100.00
42621;BME280;28252;53.336;-6.298;2023-03-13T01:33:42;97446.28;;;21.85;100.00
42621;BME280;28252;53.336;-6.298;2023-03-13T01:34:20;97458.19;;;21.83;100.00
42621;BME280;28252;53.336;-6.298;2023-03-13T01:34:53;97460.91;;;21.83;100.00
42621;BME280;28252;53.336;-6.298;2023-03-13T01:35:29;97452.22;;;21.81;100.00
42621;BME280;28252;53.336;-6.298;2023-03-13T01:36:05;97453.84;;;21.82;100.00
42621;BME280;28252;53.336;-6.298;2023-03-13T01:36:41;97438.66;;;21.81;100.00
42621;BME280;28252;53.336;-6.298;2023-03-13T01:37:18;97472.78;;;21.82;100.00
42621;BME280;28252;53.336;-6.298;2023-03-13T01:37:54;97463.06;;;21.81;100.00
42621;BME280;28252;53.336;-6.298;2023-03-13T01:38:25;97456.78;;;21.81;100.00
42621;BME280;28252;53.336;-6.298;2023-03-13T01:39:00;97466.03;;;21.80;100.00
42621;BME280;28252;53.336;-6.298;2023-03-13T01:39:31;97457.09;;;21.79;100.00
42621;BME280;28252;53.336;-6.298;2023-03-13T01:40:08;97468.72;;;21.80;100.00
42621;BME280;28252;53.336;-6.298;2023-03-13T01:40:47;97465.22;;;21.79;100.00
42621;BME280;28252;53.336;-6.298;2023-03-13T01:41:23;97457.34;;;21.78;100.00
42621;BME280;28252;53.336;-6.298;2023-03-13T01:41:55;97466.28;;;21.78;100.00
42621;BME280;28252;53.336;-6.298;2023-03-13T01:42:26;97454.63;;;21.78;100.00
42621;BME280;28252;53.336;-6.298;2023-03-13T01:42:59;97467.34;;;21.77;100.00
42621;BME280;28252;53.336;-6.298;2023-03-13T01:43:34;97467.34;;;21.77;100.00
42621;BME280;28252;53.336;-6.298;2023-03-13T01:44:16;97464.06;;;21.75;100.00
42621;BME280;28252;53.336;-6.298;2023-03-13T01:44:56;97475.72;;;21.76;100.00
42621;BME280;28252;53.336;-6.298;2023-03-13T01:46:26;97473.84;;;21.76;100.00
42621;BME280;28252;53.336;-6.298;2023-03-13T01:47:22;97469.50;;;21.75;100.00
42621;BME280;28252;53.336;-6.298;2023-03-13T01:48:10;97464.06;;;21.75;100.00
42621;BME280;28252;53.336;-6.298;2023-03-13T01:48:51;97470.59;;;21.74;100.00
42621;BME280;28252;53.336;-6.298;2023-03-13T01:49:33;97451.63;;;21.74;100.00
42621;BME280;28252;53.336;-6.298;2023-03-13T01:50:18;97449.97;;;21.73;100.00
42621;BME280;28252;53.336;-6.298;2023-03-13T01:51:03;97455.41;;;21.73;100.00
42621;BME280;28252;53.336;-6.298;2023-03-13T01:52:19;97444.81;;;21.72;100.00
42621;BME280;28252;53.336;-6.298;2023-03-13T01:52:58;97433.19;;;21.71;100.00
42621;BME280;28252;53.336;-6.298;2023-03-13T01:53:36;97441.31;;;21.71;100.00
42621;BME280;28252;53.336;-6.298;2023-03-13T01:54:15;97434.00;;;21.72;100.00
42621;BME280;28252;53.336;-6.298;2023-03-13T01:55:02;97418.53;;;21.72;100.00
42621;BME280;28252;53.336;-6.298;2023-03-13T01:55:35;97430.47;;;21.71;100.00
42621;BME280;28252;53.336;-6.298;2023-03-13T01:56:12;97428.03;;;21.70;100.00
42621;BME280;28252;53.336;-6.298;2023-03-13T01:56:52;97428.84;;;21.70;100.00
42621;BME280;28252;53.336;-6.298;2023-03-13T01:57:29;97437.75;;;21.71;100.00
42621;BME280;28252;53.336;-6.298;2023-03-13T01:58:04;97421.81;;;21.69;100.00
42621;BME280;28252;53.336;-6.298;2023-03-13T01:58:37;97435.34;;;21.69;100.00
42621;BME280;28252;53.336;-6.298;2023-03-13T01:59:13;97439.91;;;21.69;100.00
42621;BME280;28252;53.336;-6.298;2023-03-13T01:59:55;97441.81;;;21.68;100.00
42621;BME280;28252;53.336;-6.298;2023-03-13T02:00:31;97441.00;;;21.68;100.00
42621;BME280;28252;53.336;-6.298;2023-03-13T02:05:07;97438.00;;;21.64;100.00
42621;BME280;28252;53.336;-6.298;2023-03-13T02:05:40;97432.59;;;21.64;100.00
42621;BME280;28252;53.336;-6.298;2023-03-13T02:06:15;97433.66;;;21.63;100.00
42621;BME280;28252;53.336;-6.298;2023-03-13T02:06:52;97433.66;;;21.63;100.00
42621;BME280;28252;53.336;-6.298;2023-03-13T02:07:40;97432.00;;;21.62;100.00
42621;BME280;28252;53.336;-6.298;2023-03-13T02:08:18;97418.47;;;21.62;100.00
42621;BME280;28252;53.336;-6.298;2023-03-13T02:08:55;97426.59;;;21.62;100.00
42621;BME280;28252;53.336;-6.298;2023-03-13T02:09:32;97411.69;;;21.59;100.00
42621;BME280;28252;53.336;-6.298;2023-03-13T02:10:08;97420.63;;;21.60;100.00
42621;BME280;28252;53.336;-6.298;2023-03-13T02:10:47;97418.97;;;21.59;100.00
42621;BME280;28252;53.336;-6.298;2023-03-13T02:12:14;97406.28;;;21.59;100.00
42621;BME280;28252;53.336;-6.298;2023-03-13T02:12:49;97405.44;;;21.59;100.00
42621;BME280;28252;53.336;-6.298;2023-03-13T02:13:30;97408.44;;;21.57;100.00
42621;BME280;28252;53.336;-6.298;2023-03-13T02:14:01;97416.28;;;21.59;100.00
42621;BME280;28252;53.336;-6.298;2023-03-13T02:14:37;97410.84;;;21.59;100.00
42621;BME280;28252;53.336;-6.298;2023-03-13T02:15:25;97406.53;;;21.58;100.00
42621;BME280;28252;53.336;-6.298;2023-03-13T02:16:01;97403.03;;;21.57;100.00
42621;BME280;28252;53.336;-6.298;2023-03-13T02:16:38;97396.78;;;21.57;100.00
42621;BME280;28252;53.336;-6.298;2023-03-13T02:17:11;97380.53;;;21.57;100.00
42621;BME280;28252;53.336;-6.298;2023-03-13T02:17:43;97385.94;;;21.57;100.00
42621;BME280;28252;53.336;-6.298;2023-03-13T02:18:17;97389.75;;;21.56;100.00
42621;BME280;28252;53.336;-6.298;2023-03-13T02:18:51;97385.94;;;21.57;100.00
42621;BME280;28252;53.336;-6.298;2023-03-13T02:20:09;97390.81;;;21.55;100.00
42621;BME280;28252;53.336;-6.298;2023-03-13T02:20:43;97393.50;;;21.55;100.00
42621;BME280;28252;53.336;-6.298;2023-03-13T02:21:23;97393.50;;;21.55;100.00
42621;BME280;28252;53.336;-6.298;2023-03-13T02:22:32;97398.13;;;21.54;100.00
42621;BME280;28252;53.336;-6.298;2023-03-13T02:23:13;97402.69;;;21.54;100.00
42621;BME280;28252;53.336;-6.298;2023-03-13T02:23:58;97398.38;;;21.53;100.00
42621;BME280;28252;53.336;-6.298;2023-03-13T02:24:32;97401.09;;;21.53;100.00
42621;BME280;28252;53.336;-6.298;2023-03-13T02:25:12;97401.09;;;21.53;100.00
42621;BME280;28252;53.336;-6.298;2023-03-13T02:25:54;97399.44;;;21.52;100.00
42621;BME280;28252;53.336;-6.298;2023-03-13T02:26:33;97414.88;;;21.51;100.00
42621;BME280;28252;53.336;-6.298;2023-03-13T02:27:11;97405.94;;;21.51;100.00
42621;BME280;28252;53.336;-6.298;2023-03-13T02:27:46;97390.75;;;21.50;100.00
42621;BME280;28252;53.336;-6.298;2023-03-13T02:28:22;97397.81;;;21.51;100.00
42621;BME280;28252;53.336;-6.298;2023-03-13T02:28:55;97409.72;;;21.50;100.00
42621;BME280;28252;53.336;-6.298;2023-03-13T02:29:28;97396.19;;;21.50;100.00
42621;BME280;28252;53.336;-6.298;2023-03-13T02:30:07;97389.97;;;21.49;100.00
42621;BME280;28252;53.336;-6.298;2023-03-13T02:30:44;97397.25;;;21.49;100.00
42621;BME280;28252;53.336;-6.298;2023-03-13T02:31:17;97389.13;;;21.49;100.00
42621;BME280;28252;53.336;-6.298;2023-03-13T02:31:50;97395.63;;;21.48;100.00
42621;BME280;28252;53.336;-6.298;2023-03-13T02:32:24;97392.13;;;21.47;100.00
42621;BME280;28252;53.336;-6.298;2023-03-13T02:32:58;97387.50;;;21.48;100.00
42621;BME280;28252;53.336;-6.298;2023-03-13T02:33:36;97385.84;;;21.47;100.00
42621;BME280;28252;53.336;-6.298;2023-03-13T02:34:14;97386.69;;;21.47;100.00
42621;BME280;28252;53.336;-6.298;2023-03-13T02:34:48;97390.44;;;21.46;100.00
42621;BME280;28252;53.336;-6.298;2023-03-13T02:35:24;97384.22;;;21.45;100.00
42621;BME280;28252;53.336;-6.298;2023-03-13T02:35:58;97384.22;;;21.45;100.00
42621;BME280;28252;53.336;-6.298;2023-03-13T02:36:30;97366.31;;;21.44;100.00
42621;BME280;28252;53.336;-6.298;2023-03-13T02:37:04;97374.44;;;21.44;100.00
42621;BME280;28252;53.336;-6.298;2023-03-13T02:37:41;97377.16;;;21.44;100.00
42621;BME280;28252;53.336;-6.298;2023-03-13T02:38:23;97375.50;;;21.43;100.00
42621;BME280;28252;53.336;-6.298;2023-03-13T02:38:58;97372.00;;;21.43;100.00
42621;BME280;28252;53.336;-6.298;2023-03-13T02:39:31;97373.91;;;21.42;100.00
42621;BME280;28252;53.336;-6.298;2023-03-13T02:40:05;97373.09;;;21.42;100.00
42621;BME280;28252;53.336;-6.298;2023-03-13T02:40:44;97367.69;;;21.42;100.00
42621;BME280;28252;53.336;-6.298;2023-03-13T02:41:19;97364.13;;;21.41;100.00
42621;BME280;28252;53.336;-6.298;2023-03-13T02:41:55;97364.13;;;21.41;100.00
42621;BME280;28252;53.336;-6.298;2023-03-13T02:42:30;97366.84;;;21.41;100.00
42621;BME280;28252;53.336;-6.298;2023-03-13T02:43:08;97357.09;;;21.40;100.00
42621;BME280;28252;53.336;-6.298;2023-03-13T02:43:42;97371.44;;;21.41;100.00
42621;BME280;28252;53.336;-6.298;2023-03-13T02:44:15;97369.00;;;21.39;100.00
42621;BME280;28252;53.336;-6.298;2023-03-13T02:44:49;97367.09;;;21.40;100.00
42621;BME280;28252;53.336;-6.298;2023-03-13T02:45:21;97358.97;;;21.40;100.00
42621;BME280;28252;53.336;-6.298;2023-03-13T02:46:08;97365.47;;;21.39;100.00
42621;BME280;28252;53.336;-6.298;2023-03-13T02:46:47;97358.16;;;21.39;100.00
42621;BME280;28252;53.336;-6.298;2023-03-13T02:47:23;97344.88;;;21.38;100.00
42621;BME280;28252;53.336;-6.298;2023-03-13T02:47:58;97358.16;;;21.39;100.00
42621;BME280;28252;53.336;-6.298;2023-03-13T02:48:30;97345.69;;;21.38;100.00
42621;BME280;28252;53.336;-6.298;2023-03-13T02:49:20;97350.31;;;21.38;100.00
42621;BME280;28252;53.336;-6.298;2023-03-13T02:50:00;97346.78;;;21.37;100.00
42621;BME280;28252;53.336;-6.298;2023-03-13T02:50:32;97338.66;;;21.37;100.00
42621;BME280;28252;53.336;-6.298;2023-03-13T02:51:11;97330.81;;;21.36;100.00
42621;BME280;28252;53.336;-6.298;2023-03-13T02:51:51;97337.03;;;21.36;100.00
42621;BME280;28252;53.336;-6.298;2023-03-13T02:52:31;97351.66;;;21.35;100.00
42621;BME280;28252;53.336;-6.298;2023-03-13T02:53:08;97337.03;;;21.36;100.00
42621;BME280;28252;53.336;-6.298;2023-03-13T02:53:39;97338.13;;;21.35;100.00
42621;BME280;28252;53.336;-6.298;2023-03-13T02:54:13;97348.09;;;21.35;100.00
42621;BME280;28252;53.336;-6.298;2023-03-13T02:54:59;97335.66;;;21.34;100.00
42621;BME280;28252;53.336;-6.298;2023-03-13T02:55:42;97324.59;;;21.35;100.00
42621;BME280;28252;53.336;-6.298;2023-03-13T02:56:15;97331.06;;;21.34;100.00
42621;BME280;28252;53.336;-6.298;2023-03-13T02:56:48;97321.28;;;21.33;100.00
42621;BME280;28252;53.336;-6.298;2023-03-13T02:57:25;97333.78;;;21.34;100.00
42621;BME280;28252;53.336;-6.298;2023-03-13T02:57:56;97337.53;;;21.33;100.00
42621;BME280;28252;53.336;-6.298;2023-03-13T02:58:34;97322.38;;;21.32;100.00
42621;BME280;28252;53.336;-6.298;2023-03-13T02:59:55;97327.81;;;21.32;100.00
42621;BME280;28252;53.336;-6.298;2023-03-13T03:00:26;97324.25;;;21.32;100.00
42621;BME280;28252;53.336;-6.298;2023-03-13T03:01:02;97326.16;;;21.31;100.00
42621;BME280;28252;53.336;-6.298;2023-03-13T03:01:42;97323.47;;;21.31;100.00
42621;BME280;28252;53.336;-6.298;2023-03-13T03:02:13;97311.00;;;21.30;100.00
42621;BME280;28252;53.336;-6.298;2023-03-13T03:02:47;97321.84;;;21.30;100.00
42621;BME280;28252;53.336;-6.298;2023-03-13T03:03:18;97320.19;;;21.29;100.00
42621;BME280;28252;53.336;-6.298;2023-03-13T03:03:54;97325.63;;;21.29;100.00
42621;BME280;28252;53.336;-6.298;2023-03-13T03:04:30;97309.38;;;21.29;100.00
42621;BME280;28252;53.336;-6.298;2023-03-13T03:05:06;97313.97;;;21.29;100.00
42621;BME280;28252;53.336;-6.298;2023-03-13T03:05:41;97313.13;;;21.28;100.00
42621;BME280;28252;53.336;-6.298;2023-03-13T03:06:15;97305.28;;;21.26;100.00
42621;BME280;28252;53.336;-6.298;2023-03-13T03:06:46;97295.28;;;21.27;100.00
42621;BME280;28252;53.336;-6.298;2023-03-13T03:07:19;97303.41;;;21.27;100.00
42621;BME280;28252;53.336;-6.298;2023-03-13T03:07:53;97313.97;;;21.29;100.00
42621;BME280;28252;53.336;-6.298;2023-03-13T03:08:29;97309.88;;;21.26;100.00
42621;BME280;28252;53.336;-6.298;2023-03-13T03:09:04;97299.06;;;21.26;100.00
42621;BME280;28252;53.336;-6.298;2023-03-13T03:09:40;97299.06;;;21.26;100.00
42621;BME280;28252;53.336;-6.298;2023-03-13T03:10:26;97313.41;;;21.26;100.00
42621;BME280;28252;53.336;-6.298;2023-03-13T03:11:57;97305.56;;;21.25;100.00
42621;BME280;28252;53.336;-6.298;2023-03-13T03:12:31;97298.50;;;21.24;100.00
42621;BME280;28252;53.336;-6.298;2023-03-13T03:13:04;97300.16;;;21.25;100.00
42621;BME280;28252;53.336;-6.298;2023-03-13T03:13:42;97301.22;;;21.24;100.00
42621;BME280;28252;53.336;-6.298;2023-03-13T03:14:18;97293.09;;;21.24;100.00
42621;BME280;28252;53.336;-6.298;2023-03-13T03:14:52;97288.75;;;21.23;100.00
42621;BME280;28252;53.336;-6.298;2023-03-13T03:15:26;97295.81;;;21.24;100.00
42621;BME280;28252;53.336;-6.298;2023-03-13T03:15:57;97292.28;;;21.23;100.00
42621;BME280;28252;53.336;-6.298;2023-03-13T03:16:31;97277.91;;;21.23;100.00
42621;BME280;28252;53.336;-6.298;2023-03-13T03:17:04;97283.34;;;21.23;100.00
42621;BME280;28252;53.336;-6.298;2023-03-13T03:17:44;97289.00;;;21.21;100.00
42621;BME280;28252;53.336;-6.298;2023-03-13T03:18:15;97287.13;;;21.22;100.00
42621;BME280;28252;53.336;-6.298;2023-03-13T03:18:52;97285.22;;;21.22;100.00
42621;BME280;28252;53.336;-6.298;2023-03-13T03:19:23;97277.38;;;21.21;100.00
42621;BME280;28252;53.336;-6.298;2023-03-13T03:19:54;97271.97;;;21.21;100.00
42621;BME280;28252;53.336;-6.298;2023-03-13T03:20:30;97274.66;;;21.21;100.00
42621;BME280;28252;53.336;-6.298;2023-03-13T03:21:04;97278.47;;;21.20;100.00
42621;BME280;28252;53.336;-6.298;2023-03-13T03:21:42;97274.91;;;21.19;100.00
42621;BME280;28252;53.336;-6.298;2023-03-13T03:22:19;97275.19;;;21.18;100.00
42621;BME280;28252;53.336;-6.298;2023-03-13T03:22:52;97273.31;;;21.18;100.00
42621;BME280;28252;53.336;-6.298;2023-03-13T03:23:29;97282.22;;;21.19;100.00
42621;BME280;28252;53.336;-6.298;2023-03-13T03:24:00;97272.47;;;21.18;100.00
42621;BME280;28252;53.336;-6.298;2023-03-13T03:24:32;97275.19;;;21.18;100.00
42621;BME280;28252;53.336;-6.298;2023-03-13T03:25:20;97272.47;;;21.18;100.00
42621;BME280;28252;53.336;-6.298;2023-03-13T03:25:56;97282.50;;;21.17;100.00